sensor_id;sensor_type;location;lat;lon;timestamp;P1;durP1;ratioP1;P2;durP2;ratioP2
75012;SDS011;63567;49.956;20.130;2023-04-15T00:02:00;1.10;;;0.60;;
75012;SDS011;63567;49.956;20.130;2023-04-15T00:04:26;1.40;;;0.60;;
75012;SDS011;63567;49.956;20.130;2023-04-15T00:06:52;1.67;;;0.57;;
75012;SDS011;63567;49.956;20.130;2023-04-15T00:09:18;1.25;;;0.60;;
75012;SDS011;63567;49.956;20.130;2023-04-15T00:11:44;2.55;;;0.50;;
75012;SDS011;63567;49.956;20.130;2023-04-15T00:14:11;1.73;;;0.50;;
75012;SDS011;63567;49.956;20.130;2023-04-15T00:16:37;1.05;;;0.50;;
75012;SDS011;63567;49.956;20.130;2023-04-15T00:19:03;1.20;;;0.57;;
75012;SDS011;63567;49.956;20.130;2023-04-15T00:21:28;1.70;;;0.50;;
75012;SDS011;63567;49.956;20.130;2023-04-15T00:23:54;1.98;;;0.80;;
75012;SDS011;63567;49.956;20.130;2023-04-15T00:26:19;1.35;;;0.45;;
75012;SDS011;63567;49.956;20.130;2023-04-15T00:28:45;1.40;;;0.40;;
75012;SDS011;63567;49.956;20.130;2023-04-15T00:31:11;2.00;;;0.60;;
75012;SDS011;63567;49.956;20.130;2023-04-15T00:33:36;1.65;;;0.52;;
75012;SDS011;63567;49.956;20.130;2023-04-15T00:36:02;1.27;;;0.43;;
75012;SDS011;63567;49.956;20.130;2023-04-15T00:38:28;1.85;;;0.70;;
75012;SDS011;63567;49.956;20.130;2023-04-15T00:40:53;1.35;;;0.60;;
75012;SDS011;63567;49.956;20.130;2023-04-15T00:43:20;1.45;;;0.50;;
75012;SDS011;63567;49.956;20.130;2023-04-15T00:45:45;1.65;;;0.77;;
75012;SDS011;63567;49.956;20.130;2023-04-15T00:48:11;1.38;;;0.65;;
75012;SDS011;63567;49.956;20.130;2023-04-15T00:50:37;1.95;;;0.50;;
75012;SDS011;63567;49.956;20.130;2023-04-15T00:53:02;1.30;;;0.63;;
75012;SDS011;63567;49.956;20.130;2023-04-15T00:55:27;1.40;;;0.70;;
75012;SDS011;63567;49.956;20.130;2023-04-15T00:57:53;1.53;;;0.57;;
75012;SDS011;63567;49.956;20.130;2023-04-15T01:00:19;1.50;;;0.60;;
75012;SDS011;63567;49.956;20.130;2023-04-15T01:02:44;1.45;;;0.63;;
75012;SDS011;63567;49.956;20.130;2023-04-15T01:05:10;2.05;;;0.70;;
75012;SDS011;63567;49.956;20.130;2023-04-15T01:07:35;1.23;;;0.57;;
75012;SDS011;63567;49.956;20.130;2023-04-15T01:10:04;1.33;;;0.80;;
75012;SDS011;63567;49.956;20.130;2023-04-15T01:12:30;1.55;;;0.70;;
75012;SDS011;63567;49.956;20.130;2023-04-15T01:14:57;1.75;;;0.60;;
75012;SDS011;63567;49.956;20.130;2023-04-15T01:17:24;1.63;;;0.80;;
75012;SDS011;63567;49.956;20.130;2023-04-15T01:19:50;1.40;;;0.68;;
75012;SDS011;63567;49.956;20.130;2023-04-15T01:22:16;1.65;;;0.82;;
75012;SDS011;63567;49.956;20.130;2023-04-15T01:24:43;1.77;;;0.57;;
75012;SDS011;63567;49.956;20.130;2023-04-15T01:27:32;1.10;;;0.60;;
75012;SDS011;63567;49.956;20.130;2023-04-15T01:29:59;1.30;;;0.57;;
75012;SDS011;63567;49.956;20.130;2023-04-15T01:32:25;1.80;;;0.80;;
75012;SDS011;63567;49.956;20.130;2023-04-15T01:34:51;1.67;;;0.80;;
75012;SDS011;63567;49.956;20.130;2023-04-15T01:37:16;1.83;;;0.85;;
75012;SDS011;63567;49.956;20.130;2023-04-15T01:39:42;1.35;;;0.77;;
75012;SDS011;63567;49.956;20.130;2023-04-15T01:42:07;1.38;;;0.77;;
75012;SDS011;63567;49.956;20.130;2023-04-15T01:44:32;1.77;;;0.70;;
75012;SDS011;63567;49.956;20.130;2023-04-15T01:46:58;1.37;;;0.60;;
75012;SDS011;63567;49.956;20.130;2023-04-15T01:49:23;1.50;;;0.70;;
75012;SDS011;63567;49.956;20.130;2023-04-15T01:51:48;2.63;;;1.00;;
75012;SDS011;63567;49.956;20.130;2023-04-15T01:54:14;1.63;;;0.80;;
75012;SDS011;63567;49.956;20.130;2023-04-15T01:56:39;1.40;;;0.73;;
75012;SDS011;63567;49.956;20.130;2023-04-15T01:59:05;1.65;;;0.90;;
75012;SDS011;63567;49.956;20.130;2023-04-15T02:01:30;1.77;;;0.77;;
75012;SDS011;63567;49.956;20.130;2023-04-15T02:03:55;1.95;;;0.80;;
75012;SDS011;63567;49.956;20.130;2023-04-15T02:06:21;1.77;;;1.00;;
75012;SDS011;63567;49.956;20.130;2023-04-15T02:08:46;1.50;;;0.68;;
75012;SDS011;63567;49.956;20.130;2023-04-15T02:11:12;2.27;;;0.80;;
75012;SDS011;63567;49.956;20.130;2023-04-15T02:13:37;2.13;;;0.70;;
75012;SDS011;63567;49.956;20.130;2023-04-15T02:16:02;1.60;;;0.80;;
75012;SDS011;63567;49.956;20.130;2023-04-15T02:18:28;1.85;;;0.65;;
75012;SDS011;63567;49.956;20.130;2023-04-15T02:20:54;1.65;;;0.80;;
75012;SDS011;63567;49.956;20.130;2023-04-15T02:23:21;2.13;;;0.98;;
75012;SDS011;63567;49.956;20.130;2023-04-15T02:25:46;1.60;;;0.70;;
75012;SDS011;63567;49.956;20.130;2023-04-15T02:28:12;1.67;;;0.90;;
75012;SDS011;63567;49.956;20.130;2023-04-15T02:30:37;1.47;;;0.70;;
75012;SDS011;63567;49.956;20.130;2023-04-15T02:33:04;1.20;;;0.70;;
75012;SDS011;63567;49.956;20.130;2023-04-15T02:35:31;2.00;;;0.90;;
75012;SDS011;63567;49.956;20.130;2023-04-15T02:37:56;1.70;;;0.75;;
75012;SDS011;63567;49.956;20.130;2023-04-15T02:40:22;2.10;;;0.67;;
75012;SDS011;63567;49.956;20.130;2023-04-15T02:42:47;1.92;;;0.70;;
75012;SDS011;63567;49.956;20.130;2023-04-15T02:45:13;1.80;;;0.90;;
75012;SDS011;63567;49.956;20.130;2023-04-15T02:47:38;1.35;;;0.57;;
75012;SDS011;63567;49.956;20.130;2023-04-15T02:50:09;1.50;;;0.90;;
75012;SDS011;63567;49.956;20.130;2023-04-15T02:52:38;1.52;;;0.70;;
75012;SDS011;63567;49.956;20.130;2023-04-15T02:55:06;1.73;;;0.73;;
75012;SDS011;63567;49.956;20.130;2023-04-15T02:57:33;1.65;;;0.90;;
75012;SDS011;63567;49.956;20.130;2023-04-15T03:00:01;1.60;;;0.90;;
75012;SDS011;63567;49.956;20.130;2023-04-15T03:02:32;1.80;;;0.98;;
75012;SDS011;63567;49.956;20.130;2023-04-15T03:04:59;3.45;;;1.27;;
75012;SDS011;63567;49.956;20.130;2023-04-15T03:07:24;2.00;;;0.75;;
75012;SDS011;63567;49.956;20.130;2023-04-15T03:09:50;2.28;;;0.80;;
75012;SDS011;63567;49.956;20.130;2023-04-15T03:12:15;1.92;;;0.80;;
75012;SDS011;63567;49.956;20.130;2023-04-15T03:14:40;1.87;;;0.80;;
75012;SDS011;63567;49.956;20.130;2023-04-15T03:17:06;1.93;;;1.00;;
75012;SDS011;63567;49.956;20.130;2023-04-15T03:19:32;2.17;;;0.80;;
75012;SDS011;63567;49.956;20.130;2023-04-15T03:21:57;3.13;;;1.07;;
75012;SDS011;63567;49.956;20.130;2023-04-15T03:24:22;1.87;;;0.90;;
75012;SDS011;63567;49.956;20.130;2023-04-15T03:26:48;1.77;;;0.85;;
75012;SDS011;63567;49.956;20.130;2023-04-15T03:29:14;2.67;;;0.90;;
75012;SDS011;63567;49.956;20.130;2023-04-15T03:31:39;1.97;;;1.00;;
75012;SDS011;63567;49.956;20.130;2023-04-15T03:34:04;1.57;;;0.67;;
75012;SDS011;63567;49.956;20.130;2023-04-15T03:36:30;1.83;;;0.95;;
75012;SDS011;63567;49.956;20.130;2023-04-15T03:38:57;2.03;;;0.90;;
75012;SDS011;63567;49.956;20.130;2023-04-15T03:41:23;1.98;;;0.90;;
75012;SDS011;63567;49.956;20.130;2023-04-15T03:43:48;1.73;;;0.70;;
75012;SDS011;63567;49.956;20.130;2023-04-15T03:46:16;1.95;;;0.98;;
75012;SDS011;63567;49.956;20.130;2023-04-15T03:48:42;1.73;;;1.00;;
75012;SDS011;63567;49.956;20.130;2023-04-15T03:51:07;1.57;;;0.80;;
75012;SDS011;63567;49.956;20.130;2023-04-15T03:53:32;2.17;;;0.85;;
75012;SDS011;63567;49.956;20.130;2023-04-15T03:55:58;1.83;;;1.00;;
75012;SDS011;63567;49.956;20.130;2023-04-15T03:58:23;1.63;;;0.80;;
75012;SDS011;63567;49.956;20.130;2023-04-15T04:00:48;1.87;;;0.90;;
75012;SDS011;63567;49.956;20.130;2023-04-15T04:03:14;2.17;;;0.90;;
75012;SDS011;63567;49.956;20.130;2023-04-15T04:05:39;1.37;;;0.77;;
75012;SDS011;63567;49.956;20.130;2023-04-15T04:08:05;1.70;;;0.80;;
75012;SDS011;63567;49.956;20.130;2023-04-15T04:10:31;1.50;;;0.77;;
75012;SDS011;63567;49.956;20.130;2023-04-15T04:12:56;1.83;;;0.90;;
75012;SDS011;63567;49.956;20.130;2023-04-15T04:15:22;1.70;;;0.95;;
75012;SDS011;63567;49.956;20.130;2023-04-15T04:17:47;1.70;;;0.90;;
75012;SDS011;63567;49.956;20.130;2023-04-15T04:20:12;1.87;;;1.00;;
75012;SDS011;63567;49.956;20.130;2023-04-15T04:22:38;2.13;;;1.13;;
75012;SDS011;63567;49.956;20.130;2023-04-15T04:25:05;2.65;;;0.98;;
75012;SDS011;63567;49.956;20.130;2023-04-15T04:27:32;1.80;;;1.02;;
75012;SDS011;63567;49.956;20.130;2023-04-15T04:29:58;1.60;;;0.80;;
75012;SDS011;63567;49.956;20.130;2023-04-15T04:32:23;1.53;;;0.90;;
75012;SDS011;63567;49.956;20.130;2023-04-15T04:34:49;1.60;;;0.90;;
75012;SDS011;63567;49.956;20.130;2023-04-15T04:37:14;2.15;;;0.93;;
75012;SDS011;63567;49.956;20.130;2023-04-15T04:39:40;2.15;;;1.20;;
75012;SDS011;63567;49.956;20.130;2023-04-15T04:42:05;2.15;;;1.23;;
75012;SDS011;63567;49.956;20.130;2023-04-15T04:44:31;1.83;;;1.10;;
75012;SDS011;63567;49.956;20.130;2023-04-15T04:46:56;2.70;;;1.10;;
75012;SDS011;63567;49.956;20.130;2023-04-15T04:49:21;3.30;;;1.30;;
75012;SDS011;63567;49.956;20.130;2023-04-15T04:51:47;2.63;;;1.50;;
75012;SDS011;63567;49.956;20.130;2023-04-15T04:54:12;2.00;;;1.40;;
75012;SDS011;63567;49.956;20.130;2023-04-15T04:56:38;2.10;;;1.17;;
75012;SDS011;63567;49.956;20.130;2023-04-15T04:59:04;2.45;;;1.27;;
75012;SDS011;63567;49.956;20.130;2023-04-15T05:01:29;2.50;;;1.50;;
75012;SDS011;63567;49.956;20.130;2023-04-15T05:03:54;2.28;;;1.02;;
75012;SDS011;63567;49.956;20.130;2023-04-15T05:06:20;2.00;;;1.20;;
75012;SDS011;63567;49.956;20.130;2023-04-15T05:08:46;2.22;;;1.30;;
75012;SDS011;63567;49.956;20.130;2023-04-15T05:11:18;2.90;;;1.70;;
75012;SDS011;63567;49.956;20.130;2023-04-15T05:13:43;2.70;;;1.30;;
75012;SDS011;63567;49.956;20.130;2023-04-15T05:16:08;2.53;;;1.00;;
75012;SDS011;63567;49.956;20.130;2023-04-15T05:18:34;2.67;;;1.03;;
75012;SDS011;63567;49.956;20.130;2023-04-15T05:20:59;2.42;;;1.17;;
75012;SDS011;63567;49.956;20.130;2023-04-15T05:23:25;2.78;;;1.35;;
75012;SDS011;63567;49.956;20.130;2023-04-15T05:25:50;2.53;;;1.00;;
75012;SDS011;63567;49.956;20.130;2023-04-15T05:28:16;2.10;;;1.05;;
75012;SDS011;63567;49.956;20.130;2023-04-15T05:30:41;2.67;;;1.10;;
75012;SDS011;63567;49.956;20.130;2023-04-15T05:33:07;2.17;;;1.00;;
75012;SDS011;63567;49.956;20.130;2023-04-15T05:35:33;1.88;;;0.93;;
75012;SDS011;63567;49.956;20.130;2023-04-15T05:37:58;2.60;;;1.00;;
75012;SDS011;63567;49.956;20.130;2023-04-15T05:40:23;2.70;;;0.98;;
75012;SDS011;63567;49.956;20.130;2023-04-15T05:42:49;2.22;;;0.98;;
75012;SDS011;63567;49.956;20.130;2023-04-15T05:45:14;2.20;;;1.03;;
75012;SDS011;63567;49.956;20.130;2023-04-15T05:47:39;1.43;;;0.60;;
75012;SDS011;63567;49.956;20.130;2023-04-15T05:50:05;3.07;;;0.80;;
75012;SDS011;63567;49.956;20.130;2023-04-15T05:52:31;1.80;;;0.77;;
75012;SDS011;63567;49.956;20.130;2023-04-15T05:54:56;1.88;;;1.00;;
75012;SDS011;63567;49.956;20.130;2023-04-15T05:57:22;1.30;;;0.52;;
75012;SDS011;63567;49.956;20.130;2023-04-15T05:59:47;1.42;;;0.80;;
75012;SDS011;63567;49.956;20.130;2023-04-15T06:02:13;1.20;;;0.50;;
75012;SDS011;63567;49.956;20.130;2023-04-15T06:04:38;1.20;;;0.60;;
75012;SDS011;63567;49.956;20.130;2023-04-15T06:07:04;2.00;;;0.70;;
75012;SDS011;63567;49.956;20.130;2023-04-15T06:09:29;2.13;;;0.60;;
75012;SDS011;63567;49.956;20.130;2023-04-15T06:11:55;1.83;;;0.70;;
75012;SDS011;63567;49.956;20.130;2023-04-15T06:14:21;1.48;;;0.63;;
75012;SDS011;63567;49.956;20.130;2023-04-15T06:16:47;2.53;;;1.00;;
75012;SDS011;63567;49.956;20.130;2023-04-15T06:19:12;1.95;;;0.90;;
75012;SDS011;63567;49.956;20.130;2023-04-15T06:21:38;2.30;;;0.90;;
75012;SDS011;63567;49.956;20.130;2023-04-15T06:24:03;2.40;;;0.80;;
75012;SDS011;63567;49.956;20.130;2023-04-15T06:26:29;1.60;;;0.60;;
75012;SDS011;63567;49.956;20.130;2023-04-15T06:28:55;2.60;;;1.00;;
75012;SDS011;63567;49.956;20.130;2023-04-15T06:31:21;1.38;;;0.70;;
75012;SDS011;63567;49.956;20.130;2023-04-15T06:33:46;1.90;;;0.90;;
75012;SDS011;63567;49.956;20.130;2023-04-15T06:36:11;2.60;;;1.20;;
75012;SDS011;63567;49.956;20.130;2023-04-15T06:38:37;2.30;;;1.15;;
75012;SDS011;63567;49.956;20.130;2023-04-15T06:41:03;3.20;;;1.63;;
75012;SDS011;63567;49.956;20.130;2023-04-15T06:43:28;1.90;;;0.90;;
75012;SDS011;63567;49.956;20.130;2023-04-15T06:45:54;2.38;;;1.02;;
75012;SDS011;63567;49.956;20.130;2023-04-15T06:48:20;2.20;;;0.95;;
75012;SDS011;63567;49.956;20.130;2023-04-15T06:50:46;2.00;;;1.00;;
75012;SDS011;63567;49.956;20.130;2023-04-15T06:53:11;1.70;;;1.13;;
75012;SDS011;63567;49.956;20.130;2023-04-15T06:55:36;2.40;;;1.20;;
75012;SDS011;63567;49.956;20.130;2023-04-15T06:58:02;2.22;;;1.17;;
75012;SDS011;63567;49.956;20.130;2023-04-15T07:00:27;2.60;;;1.03;;
75012;SDS011;63567;49.956;20.130;2023-04-15T07:02:52;2.55;;;1.23;;
75012;SDS011;63567;49.956;20.130;2023-04-15T07:05:19;2.15;;;1.10;;
75012;SDS011;63567;49.956;20.130;2023-04-15T07:07:44;2.17;;;1.48;;
75012;SDS011;63567;49.956;20.130;2023-04-15T07:10:10;2.03;;;1.40;;
75012;SDS011;63567;49.956;20.130;2023-04-15T07:12:36;2.65;;;1.30;;
75012;SDS011;63567;49.956;20.130;2023-04-15T07:15:01;2.35;;;1.30;;
75012;SDS011;63567;49.956;20.130;2023-04-15T07:17:27;2.10;;;1.20;;
75012;SDS011;63567;49.956;20.130;2023-04-15T07:19:52;4.30;;;1.17;;
75012;SDS011;63567;49.956;20.130;2023-04-15T07:22:18;2.13;;;0.73;;
75012;SDS011;63567;49.956;20.130;2023-04-15T07:24:43;2.67;;;1.00;;
75012;SDS011;63567;49.956;20.130;2023-04-15T07:27:08;2.93;;;1.43;;
75012;SDS011;63567;49.956;20.130;2023-04-15T07:29:34;2.77;;;1.67;;
75012;SDS011;63567;49.956;20.130;2023-04-15T07:32:00;3.55;;;1.70;;
75012;SDS011;63567;49.956;20.130;2023-04-15T07:34:25;2.50;;;1.40;;
75012;SDS011;63567;49.956;20.130;2023-04-15T07:36:50;2.83;;;1.40;;
75012;SDS011;63567;49.956;20.130;2023-04-15T07:39:16;3.05;;;2.00;;
75012;SDS011;63567;49.956;20.130;2023-04-15T07:41:42;3.45;;;1.77;;
75012;SDS011;63567;49.956;20.130;2023-04-15T07:44:08;2.33;;;1.40;;
75012;SDS011;63567;49.956;20.130;2023-04-15T07:46:33;3.28;;;1.70;;
75012;SDS011;63567;49.956;20.130;2023-04-15T07:48:59;3.13;;;1.77;;
75012;SDS011;63567;49.956;20.130;2023-04-15T07:51:24;2.22;;;1.48;;
75012;SDS011;63567;49.956;20.130;2023-04-15T07:53:49;2.25;;;1.27;;
75012;SDS011;63567;49.956;20.130;2023-04-15T07:56:15;2.38;;;1.70;;
75012;SDS011;63567;49.956;20.130;2023-04-15T07:58:40;2.42;;;1.33;;
75012;SDS011;63567;49.956;20.130;2023-04-15T08:01:06;3.55;;;1.20;;
75012;SDS011;63567;49.956;20.130;2023-04-15T08:03:32;2.50;;;1.27;;
75012;SDS011;63567;49.956;20.130;2023-04-15T08:05:57;2.25;;;1.15;;
75012;SDS011;63567;49.956;20.130;2023-04-15T08:08:23;2.30;;;1.48;;
75012;SDS011;63567;49.956;20.130;2023-04-15T08:10:49;3.17;;;1.50;;
75012;SDS011;63567;49.956;20.130;2023-04-15T08:13:14;3.13;;;1.77;;
75012;SDS011;63567;49.956;20.130;2023-04-15T08:15:41;2.05;;;1.27;;
75012;SDS011;63567;49.956;20.130;2023-04-15T08:18:06;3.17;;;1.40;;
75012;SDS011;63567;49.956;20.130;2023-04-15T08:20:32;3.67;;;2.08;;
75012;SDS011;63567;49.956;20.130;2023-04-15T08:22:57;3.22;;;1.80;;
75012;SDS011;63567;49.956;20.130;2023-04-15T08:25:23;2.80;;;1.70;;
75012;SDS011;63567;49.956;20.130;2023-04-15T08:27:48;2.38;;;1.48;;
75012;SDS011;63567;49.956;20.130;2023-04-15T08:30:14;2.78;;;1.42;;
75012;SDS011;63567;49.956;20.130;2023-04-15T08:32:40;3.13;;;2.30;;
75012;SDS011;63567;49.956;20.130;2023-04-15T08:35:06;2.92;;;1.65;;
75012;SDS011;63567;49.956;20.130;2023-04-15T08:37:33;3.45;;;2.00;;
75012;SDS011;63567;49.956;20.130;2023-04-15T08:39:58;2.60;;;2.00;;
75012;SDS011;63567;49.956;20.130;2023-04-15T08:42:26;2.63;;;1.87;;
75012;SDS011;63567;49.956;20.130;2023-04-15T08:44:55;2.67;;;1.80;;
75012;SDS011;63567;49.956;20.130;2023-04-15T08:47:24;2.90;;;1.50;;
75012;SDS011;63567;49.956;20.130;2023-04-15T08:49:53;2.72;;;1.38;;
75012;SDS011;63567;49.956;20.130;2023-04-15T08:52:19;2.22;;;1.33;;
75012;SDS011;63567;49.956;20.130;2023-04-15T08:54:45;2.65;;;1.48;;
75012;SDS011;63567;49.956;20.130;2023-04-15T08:57:12;2.72;;;1.60;;
75012;SDS011;63567;49.956;20.130;2023-04-15T08:59:38;3.03;;;1.50;;
75012;SDS011;63567;49.956;20.130;2023-04-15T09:02:05;2.10;;;1.15;;
75012;SDS011;63567;49.956;20.130;2023-04-15T09:04:31;2.65;;;1.30;;
75012;SDS011;63567;49.956;20.130;2023-04-15T09:06:57;1.90;;;1.25;;
75012;SDS011;63567;49.956;20.130;2023-04-15T09:09:23;2.47;;;1.40;;
75012;SDS011;63567;49.956;20.130;2023-04-15T09:11:48;2.08;;;1.30;;
75012;SDS011;63567;49.956;20.130;2023-04-15T09:14:15;2.50;;;1.27;;
75012;SDS011;63567;49.956;20.130;2023-04-15T09:17:00;2.17;;;1.63;;
75012;SDS011;63567;49.956;20.130;2023-04-15T09:19:28;1.85;;;1.33;;
75012;SDS011;63567;49.956;20.130;2023-04-15T09:21:54;2.08;;;1.25;;
75012;SDS011;63567;49.956;20.130;2023-04-15T09:24:21;2.17;;;1.13;;
75012;SDS011;63567;49.956;20.130;2023-04-15T09:26:47;2.40;;;1.88;;
75012;SDS011;63567;49.956;20.130;2023-04-15T09:29:15;2.15;;;1.27;;
75012;SDS011;63567;49.956;20.130;2023-04-15T09:31:42;2.40;;;1.10;;
75012;SDS011;63567;49.956;20.130;2023-04-15T09:34:07;2.58;;;1.20;;
75012;SDS011;63567;49.956;20.130;2023-04-15T09:36:51;1.70;;;1.10;;
75012;SDS011;63567;49.956;20.130;2023-04-15T09:39:18;2.40;;;1.35;;
75012;SDS011;63567;49.956;20.130;2023-04-15T09:41:43;1.80;;;1.13;;
75012;SDS011;63567;49.956;20.130;2023-04-15T09:44:27;2.50;;;1.10;;
75012;SDS011;63567;49.956;20.130;2023-04-15T09:46:52;1.77;;;1.00;;
75012;SDS011;63567;49.956;20.130;2023-04-15T09:49:18;2.53;;;1.60;;
75012;SDS011;63567;49.956;20.130;2023-04-15T09:51:44;3.03;;;1.30;;
75012;SDS011;63567;49.956;20.130;2023-04-15T09:54:10;3.35;;;1.85;;
75012;SDS011;63567;49.956;20.130;2023-04-15T09:56:36;1.97;;;1.20;;
75012;SDS011;63567;49.956;20.130;2023-04-15T09:59:06;2.30;;;1.65;;
75012;SDS011;63567;49.956;20.130;2023-04-15T10:01:34;3.58;;;1.30;;
75012;SDS011;63567;49.956;20.130;2023-04-15T10:04:03;2.13;;;1.10;;
75012;SDS011;63567;49.956;20.130;2023-04-15T10:06:29;2.75;;;1.40;;
75012;SDS011;63567;49.956;20.130;2023-04-15T10:08:56;1.88;;;1.45;;
75012;SDS011;63567;49.956;20.130;2023-04-15T10:11:22;2.25;;;1.40;;
75012;SDS011;63567;49.956;20.130;2023-04-15T10:13:48;2.13;;;1.30;;
75012;SDS011;63567;49.956;20.130;2023-04-15T10:16:15;2.92;;;2.63;;
75012;SDS011;63567;49.956;20.130;2023-04-15T10:18:45;3.22;;;2.05;;
75012;SDS011;63567;49.956;20.130;2023-04-15T10:21:12;2.30;;;1.80;;
75012;SDS011;63567;49.956;20.130;2023-04-15T10:23:40;4.35;;;3.05;;
75012;SDS011;63567;49.956;20.130;2023-04-15T10:26:06;2.97;;;1.88;;
75012;SDS011;63567;49.956;20.130;2023-04-15T10:28:33;3.70;;;3.03;;
75012;SDS011;63567;49.956;20.130;2023-04-15T10:30:58;2.30;;;1.58;;
75012;SDS011;63567;49.956;20.130;2023-04-15T10:33:25;2.83;;;1.73;;
75012;SDS011;63567;49.956;20.130;2023-04-15T10:35:55;2.63;;;2.00;;
75012;SDS011;63567;49.956;20.130;2023-04-15T10:38:30;2.55;;;1.67;;
75012;SDS011;63567;49.956;20.130;2023-04-15T10:41:10;3.60;;;2.13;;
75012;SDS011;63567;49.956;20.130;2023-04-15T10:43:38;3.95;;;2.00;;
75012;SDS011;63567;49.956;20.130;2023-04-15T10:46:07;3.95;;;3.65;;
75012;SDS011;63567;49.956;20.130;2023-04-15T10:50:59;1.90;;;1.50;;
75012;SDS011;63567;49.956;20.130;2023-04-15T10:53:29;2.60;;;1.67;;
75012;SDS011;63567;49.956;20.130;2023-04-15T10:55:56;3.38;;;1.65;;
75012;SDS011;63567;49.956;20.130;2023-04-15T10:58:22;4.43;;;4.13;;
75012;SDS011;63567;49.956;20.130;2023-04-15T11:00:49;5.15;;;2.67;;
75012;SDS011;63567;49.956;20.130;2023-04-15T11:03:37;2.25;;;1.50;;
75012;SDS011;63567;49.956;20.130;2023-04-15T11:06:04;1.90;;;1.40;;
75012;SDS011;63567;49.956;20.130;2023-04-15T11:11:37;2.25;;;1.70;;
75012;SDS011;63567;49.956;20.130;2023-04-15T11:14:26;2.55;;;1.75;;
75012;SDS011;63567;49.956;20.130;2023-04-15T11:16:52;2.70;;;1.58;;
75012;SDS011;63567;49.956;20.130;2023-04-15T11:19:17;2.90;;;1.60;;
75012;SDS011;63567;49.956;20.130;2023-04-15T11:21:42;2.58;;;2.38;;
75012;SDS011;63567;49.956;20.130;2023-04-15T11:24:08;2.47;;;1.10;;
75012;SDS011;63567;49.956;20.130;2023-04-15T11:26:33;2.30;;;1.20;;
75012;SDS011;63567;49.956;20.130;2023-04-15T11:28:59;2.30;;;1.52;;
75012;SDS011;63567;49.956;20.130;2023-04-15T11:31:25;2.38;;;1.10;;
75012;SDS011;63567;49.956;20.130;2023-04-15T11:33:56;2.45;;;1.10;;
75012;SDS011;63567;49.956;20.130;2023-04-15T11:36:28;2.88;;;1.30;;
75012;SDS011;63567;49.956;20.130;2023-04-15T11:38:56;2.60;;;1.20;;
75012;SDS011;63567;49.956;20.130;2023-04-15T11:41:23;2.42;;;1.45;;
75012;SDS011;63567;49.956;20.130;2023-04-15T11:43:48;2.20;;;2.00;;
75012;SDS011;63567;49.956;20.130;2023-04-15T11:46:15;1.77;;;1.10;;
75012;SDS011;63567;49.956;20.130;2023-04-15T11:48:44;3.20;;;1.75;;
75012;SDS011;63567;49.956;20.130;2023-04-15T11:51:11;3.33;;;1.42;;
75012;SDS011;63567;49.956;20.130;2023-04-15T11:56:17;3.15;;;1.45;;
75012;SDS011;63567;49.956;20.130;2023-04-15T11:58:43;2.83;;;1.10;;
75012;SDS011;63567;49.956;20.130;2023-04-15T12:01:10;2.33;;;1.20;;
75012;SDS011;63567;49.956;20.130;2023-04-15T12:03:36;1.73;;;1.00;;
75012;SDS011;63567;49.956;20.130;2023-04-15T12:06:05;1.88;;;1.00;;
75012;SDS011;63567;49.956;20.130;2023-04-15T12:11:15;1.98;;;1.10;;
75012;SDS011;63567;49.956;20.130;2023-04-15T12:13:47;1.70;;;1.00;;
75012;SDS011;63567;49.956;20.130;2023-04-15T12:16:17;2.53;;;1.40;;
75012;SDS011;63567;49.956;20.130;2023-04-15T12:18:46;2.92;;;1.10;;
75012;SDS011;63567;49.956;20.130;2023-04-15T12:21:17;3.13;;;1.40;;
75012;SDS011;63567;49.956;20.130;2023-04-15T12:23:47;2.53;;;1.23;;
75012;SDS011;63567;49.956;20.130;2023-04-15T12:26:16;2.17;;;1.33;;
75012;SDS011;63567;49.956;20.130;2023-04-15T12:28:43;1.80;;;1.00;;
75012;SDS011;63567;49.956;20.130;2023-04-15T12:31:09;2.45;;;0.95;;
75012;SDS011;63567;49.956;20.130;2023-04-15T12:33:35;1.98;;;1.10;;
75012;SDS011;63567;49.956;20.130;2023-04-15T12:36:00;3.17;;;1.20;;
75012;SDS011;63567;49.956;20.130;2023-04-15T12:38:26;2.72;;;1.00;;
75012;SDS011;63567;49.956;20.130;2023-04-15T12:40:51;2.08;;;1.23;;
75012;SDS011;63567;49.956;20.130;2023-04-15T12:43:16;2.65;;;1.20;;
75012;SDS011;63567;49.956;20.130;2023-04-15T12:45:42;1.80;;;1.10;;
75012;SDS011;63567;49.956;20.130;2023-04-15T12:48:07;3.47;;;1.30;;
75012;SDS011;63567;49.956;20.130;2023-04-15T12:50:33;1.77;;;1.10;;
75012;SDS011;63567;49.956;20.130;2023-04-15T12:52:59;2.35;;;1.20;;
75012;SDS011;63567;49.956;20.130;2023-04-15T12:55:25;1.80;;;0.98;;
75012;SDS011;63567;49.956;20.130;2023-04-15T12:57:50;1.92;;;1.20;;
75012;SDS011;63567;49.956;20.130;2023-04-15T13:00:16;2.50;;;1.10;;
75012;SDS011;63567;49.956;20.130;2023-04-15T13:02:42;2.42;;;1.33;;
75012;SDS011;63567;49.956;20.130;2023-04-15T13:05:08;2.10;;;1.38;;
75012;SDS011;63567;49.956;20.130;2023-04-15T13:07:34;1.90;;;1.10;;
75012;SDS011;63567;49.956;20.130;2023-04-15T13:09:59;2.07;;;1.40;;
75012;SDS011;63567;49.956;20.130;2023-04-15T13:12:25;2.38;;;1.60;;
75012;SDS011;63567;49.956;20.130;2023-04-15T13:14:51;3.13;;;1.88;;
75012;SDS011;63567;49.956;20.130;2023-04-15T13:17:16;2.17;;;1.38;;
75012;SDS011;63567;49.956;20.130;2023-04-15T13:19:44;2.67;;;1.60;;
75012;SDS011;63567;49.956;20.130;2023-04-15T13:22:10;2.40;;;1.25;;
75012;SDS011;63567;49.956;20.130;2023-04-15T13:24:36;2.38;;;1.67;;
75012;SDS011;63567;49.956;20.130;2023-04-15T13:27:01;2.05;;;1.55;;
75012;SDS011;63567;49.956;20.130;2023-04-15T13:29:28;2.30;;;1.50;;
75012;SDS011;63567;49.956;20.130;2023-04-15T13:31:54;2.30;;;1.80;;
75012;SDS011;63567;49.956;20.130;2023-04-15T13:34:20;2.25;;;1.60;;
75012;SDS011;63567;49.956;20.130;2023-04-15T13:36:46;2.30;;;1.60;;
75012;SDS011;63567;49.956;20.130;2023-04-15T13:39:11;3.00;;;2.80;;
75012;SDS011;63567;49.956;20.130;2023-04-15T13:41:37;2.38;;;1.73;;
75012;SDS011;63567;49.956;20.130;2023-04-15T13:44:02;1.97;;;1.50;;
75012;SDS011;63567;49.956;20.130;2023-04-15T13:46:29;2.67;;;2.05;;
75012;SDS011;63567;49.956;20.130;2023-04-15T13:48:54;2.90;;;1.70;;
75012;SDS011;63567;49.956;20.130;2023-04-15T13:51:19;2.50;;;1.60;;
75012;SDS011;63567;49.956;20.130;2023-04-15T13:53:45;2.80;;;1.83;;
75012;SDS011;63567;49.956;20.130;2023-04-15T13:56:10;2.42;;;1.80;;
75012;SDS011;63567;49.956;20.130;2023-04-15T13:58:36;2.95;;;2.30;;
75012;SDS011;63567;49.956;20.130;2023-04-15T14:01:02;3.83;;;3.40;;
75012;SDS011;63567;49.956;20.130;2023-04-15T14:03:27;3.75;;;2.55;;
75012;SDS011;63567;49.956;20.130;2023-04-15T14:05:53;3.33;;;2.60;;
75012;SDS011;63567;49.956;20.130;2023-04-15T14:08:20;3.45;;;2.70;;
75012;SDS011;63567;49.956;20.130;2023-04-15T14:10:46;4.35;;;2.25;;
75012;SDS011;63567;49.956;20.130;2023-04-15T14:13:13;3.38;;;2.17;;
75012;SDS011;63567;49.956;20.130;2023-04-15T14:15:39;2.67;;;1.90;;
75012;SDS011;63567;49.956;20.130;2023-04-15T14:18:05;2.97;;;2.00;;
75012;SDS011;63567;49.956;20.130;2023-04-15T14:20:31;3.08;;;2.72;;
75012;SDS011;63567;49.956;20.130;2023-04-15T14:22:56;3.07;;;2.13;;
75012;SDS011;63567;49.956;20.130;2023-04-15T14:25:21;3.10;;;2.40;;
75012;SDS011;63567;49.956;20.130;2023-04-15T14:27:47;3.60;;;2.77;;
75012;SDS011;63567;49.956;20.130;2023-04-15T14:30:12;3.47;;;2.97;;
75012;SDS011;63567;49.956;20.130;2023-04-15T14:32:38;3.47;;;2.88;;
75012;SDS011;63567;49.956;20.130;2023-04-15T14:35:04;4.63;;;3.03;;
75012;SDS011;63567;49.956;20.130;2023-04-15T14:37:29;3.38;;;2.90;;
75012;SDS011;63567;49.956;20.130;2023-04-15T14:39:55;4.13;;;3.00;;